Coulee Dam, WA (99116)

9:34 PM PDT on August 20, 2014 (GMT -0700)
RAWS SPRING CANYON WA US | Change Station
CLOSE
Current Station
Personal Weather Station
Location: Coulee Dam, WA
Elevation: 1339 ft
Nearby Weather Stations

Elev 1339 ft 47.93 °N, 118.93 °W | Updated 57 minutes ago

Overcast
Overcast
77 °F
Feels Like 78 °F
N
5
Wind Variable Wind from SE
Gusts 18.0 mph

Today
High -- | Low -- °F
--% Chance of Precip.
Yesterday
High -- | Low -- °F
Precip. -- in
5:57 AM 7:59 PM
Waning Crescent, 17% visible
Pressure 29.78 in
Visibility 10.0 miles
Clouds Mostly Cloudy 9000 ft
Overcast 11000 ft
Heat Index 78 °F
Dew Point 49 °F
Humidity 37%
Rainfall 0.00 in
Snow Depth Not available.
UV 0 out of 12
Pollen 6.60 out of 12
Air Quality Not available.
Flu Activity Not available.
METAR KOMK 210353Z AUTO 35010KT 10SM BKN090 OVC110 25/08 A2980 RMK AO2 SLP083 T02500078

More Conditions Fewer Conditions

Pressure 29.78 in
Visibility 10.0 miles
Clouds Mostly Cloudy 9000 ft
Overcast 11000 ft
Heat Index 78 °F
Dew Point 49 °F
Humidity 37%
Rainfall 0.00 in
Snow Depth Not available.
UV 0 out of 12
Pollen 6.60 out of 12
Air Quality Not available.
Flu Activity Not available.
METAR KOMK 210353Z AUTO 35010KT 10SM BKN090 OVC110 25/08 A2980 RMK AO2 SLP083 T02500078

More Conditions Fewer Conditions

10-Day Weather Forecast

Almanac

Astronomy

Aug. 20, 2014 Rise Set
Actual Time 5:57 AM PDT 7:59 PM PDT
Civil Twilight 5:24 AM PDT 8:33 PM PDT
Nautical Twilight 4:42 AM PDT 9:14 PM PDT
Astronomical Twilight 3:56 AM PDT 10:00 PM PDT
Moon 1:33 AM PDT (8/20) 4:56 PM PDT (8/20)
Length of Visible Light 15h 08m
Length of Day
14h 02m
Tomorrow will be 3m 13s shorter.
Waning Crescent, 17% of the Moon is Illuminated
Aug 21
Waning Crescent
Aug 25
New
Sep 2
First Quarter
Sep 8
Full
Sep 15
Last Quarter

Today's Extremes

State Highs State Lows

Community

WunderPhotos

Upload Photos

1,745,854 photos uploaded!

Nearby

Snow Depth

Station Depth Elevation
Moses Mountain 1 in 5300 ft
Sentinel Butte 0 in 4920 ft
Upper Wheeler 0 in 4400 ft
Trough 0 in 5300 ft
Grouse Camp 0 in 5380 ft

Earthquake Activity

City Distance Mag. Time & Date
No recent earthquake activity has been reported nearby.
Minimum magnitude displayed is 2.5.

Coastal Water Temperatures

Place Temperature
No Stations Reporting

Nearby Weather Stations